Time;durP1;ratioP1;P1;durP2;ratioP2;P2;SDS_P1;SDS_P2;PMS_P1;PMS_P2;Temp;Humidity;BMP_temperature;BMP_pressure;BME280_temperature;BME280_humidity;BME280_pressure;Samples;Min_cycle;Max_cycle;Signal;HPM_P1;HPM_P2
2023/06/19 00:01:06;;;;;;;7.07;5.90;;;;;;;23.12;61.77;100732.44;5217252;28;20029;-66
2023/06/19 00:03:37;;;;;;;6.20;5.60;;;;;;;23.06;61.47;100737.59;5217725;28;20033;-67
2023/06/19 00:06:08;;;;;;;8.80;5.43;;;;;;;22.99;62.12;100736.78;5214138;28;20033;-64
2023/06/19 00:08:41;;;;;;;6.53;5.30;;;;;;;22.97;62.26;100733.53;5197428;28;20048;-66
2023/06/19 00:11:12;;;;;;;;;;;;;;;23.60;58.23;100737.19;5216925;28;20386;-66
2023/06/19 00:13:43;;;;;;;6.83;5.30;;;;;;;22.90;62.68;100748.75;5222184;28;19913;-67
2023/06/19 00:16:15;;;;;;;8.37;5.30;;;;;;;22.89;62.96;100740.97;5219670;28;20029;-66
2023/06/19 00:18:46;;;;;;;5.90;5.30;;;;;;;22.80;63.28;100748.38;5215994;28;20086;-67
2023/06/19 00:21:18;;;;;;;7.07;5.87;;;;;;;22.76;62.99;100749.84;5216945;28;20453;-65
2023/06/19 00:23:49;;;;;;;6.33;5.50;;;;;;;22.66;63.77;100752.97;5216709;28;20053;-65
2023/06/19 00:26:25;;;;;;;7.97;5.77;;;;;;;22.65;63.84;100758.50;5193740;28;20022;-66
2023/06/19 00:28:56;;;;;;;8.43;5.88;;;;;;;22.54;64.83;100758.16;5215044;28;20140;-65
2023/06/19 00:31:28;;;;;;;6.80;6.10;;;;;;;22.51;64.89;100761.25;5219032;28;20440;-65
2023/06/19 00:33:59;;;;;;;6.50;5.50;;;;;;;22.50;65.08;100769.44;5214567;28;20037;-65
2023/06/19 00:36:31;;;;;;;6.50;5.60;;;;;;;22.46;65.51;100778.91;5211270;28;20022;-65
2023/06/19 00:39:02;;;;;;;7.33;5.57;;;;;;;22.42;66.22;100773.16;5213950;28;20053;-67
2023/06/19 00:41:35;;;;;;;6.33;5.67;;;;;;;22.37;66.46;100780.19;5214830;28;20366;-68
2023/06/19 00:44:06;;;;;;;6.47;5.88;;;;;;;22.31;66.91;100782.66;5215030;28;20124;-65
2023/06/19 00:46:40;;;;;;;5.60;5.10;;;;;;;22.32;66.66;100789.63;5214319;28;20122;-65
2023/06/19 00:49:13;;;;;;;6.53;5.40;;;;;;;22.18;67.20;100780.00;5214933;28;20398;-66
2023/06/19 00:51:44;;;;;;;6.05;4.95;;;;;;;22.16;67.59;100791.91;5217953;28;20025;-65
2023/06/19 00:54:17;;;;;;;5.67;5.07;;;;;;;22.16;67.96;100797.25;5212959;28;20026;-66
2023/06/19 00:56:49;;;;;;;;;;;;;;;22.78;62.96;100788.66;5222851;28;20702;-66
2023/06/19 00:59:20;;;;;;;6.53;5.13;;;;;;;22.13;68.72;100797.66;5213359;28;19964;-66
2023/06/19 01:01:51;;;;;;;5.53;4.97;;;;;;;22.09;68.74;100800.72;5217214;28;20803;-66
2023/06/19 01:04:23;;;;;;;5.47;4.63;;;;;;;22.05;69.43;100796.03;5220016;28;20030;-66
2023/06/19 01:07:15;;;;;;;8.20;5.10;;;;;;;22.17;69.34;100802.41;5217112;28;20498;-65
2023/06/19 01:09:52;;;;;;;6.68;4.72;;;;;;;21.99;70.66;100794.97;5211564;28;20055;-65
2023/06/19 01:12:30;;;;;;;5.97;4.68;;;;;;;21.96;71.05;100806.06;5213173;28;20057;-68
2023/06/19 01:15:07;;;;;;;5.15;4.57;;;;;;;21.92;72.30;100806.69;5214025;28;20093;-66
2023/06/19 01:17:39;;;;;;;7.32;4.65;;;;;;;21.79;73.06;100813.66;5213297;28;20502;-68
2023/06/19 01:20:11;;;;;;;5.73;4.47;;;;;;;21.79;73.78;100804.84;5216860;28;20041;-65
2023/06/19 01:22:45;;;;;;;4.38;3.97;;;;;;;21.75;74.85;100801.78;5219257;28;20026;-66
2023/06/19 01:25:16;;;;;;;4.78;4.05;;;;;;;21.73;75.42;100805.66;5217080;28;20030;-67
2023/06/19 01:27:48;;;;;;;5.27;3.93;;;;;;;21.70;75.66;100809.53;5215065;28;20098;-65
2023/06/19 01:30:19;;;;;;;5.97;4.23;;;;;;;21.70;75.84;100811.38;5213428;28;20030;-66
2023/06/19 01:33:00;;;;;;;6.50;4.47;;;;;;;21.77;75.94;100812.22;5219438;28;20712;-65
2023/06/19 01:35:35;;;;;;;5.53;3.78;;;;;;;21.67;76.92;100809.13;5217196;28;20386;-65
2023/06/19 01:38:07;;;;;;;5.00;4.32;;;;;;;21.54;77.54;100815.28;5214964;28;20164;-65
2023/06/19 01:40:40;;;;;;;6.70;4.60;;;;;;;21.56;78.52;100818.56;5216988;28;20309;-65
2023/06/19 01:43:12;;;;;;;5.43;4.53;;;;;;;21.46;79.06;100815.47;5216141;28;20475;-66
2023/06/19 01:45:43;;;;;;;5.43;3.80;;;;;;;21.45;79.90;100819.16;5205566;28;20495;-65
2023/06/19 01:48:15;;;;;;;4.83;4.20;;;;;;;21.38;80.97;100816.47;5212008;28;20036;-65
2023/06/19 01:50:47;;;;;;;4.53;3.90;;;;;;;21.36;81.32;100824.66;5215565;28;20040;-65
2023/06/19 01:53:19;;;;;;;4.60;3.67;;;;;;;21.35;81.94;100827.53;5214392;28;20037;-65
2023/06/19 01:55:50;;;;;;;5.53;4.23;;;;;;;21.30;82.19;100841.44;5215506;28;20026;-66
2023/06/19 01:58:21;;;;;;;4.57;3.90;;;;;;;21.30;83.51;100833.44;5210190;28;20030;-66
2023/06/19 02:00:52;;;;;;;4.20;3.60;;;;;;;21.25;84.47;100835.91;5215355;28;20032;-65
2023/06/19 02:03:24;;;;;;;4.17;3.37;;;;;;;21.24;85.72;100839.56;5216813;28;20048;-65
2023/06/19 02:05:55;;;;;;;4.20;2.80;;;;;;;21.16;87.36;100836.25;5212151;28;20062;-65
2023/06/19 02:08:26;;;;;;;5.03;3.50;;;;;;;21.16;88.02;100834.41;5215639;28;20056;-66
2023/06/19 02:10:57;;;;;;;3.90;3.33;;;;;;;21.16;88.79;100842.41;5213468;28;20040;-66
2023/06/19 02:13:29;;;;;;;4.80;3.63;;;;;;;21.12;90.25;100833.19;5213830;28;20033;-66
2023/06/19 02:16:00;;;;;;;5.60;2.80;;;;;;;21.15;90.21;100846.09;5212237;28;20808;-66
2023/06/19 02:18:32;;;;;;;5.13;2.43;;;;;;;21.12;91.03;100842.00;5213948;28;20030;-66
2023/06/19 02:21:03;;;;;;;3.67;2.77;;;;;;;21.09;92.21;100845.03;5213378;28;20048;-65
2023/06/19 02:23:35;;;;;;;3.13;2.50;;;;;;;21.08;92.18;100848.72;5212557;28;20420;-67
2023/06/19 02:26:06;;;;;;;4.33;2.47;;;;;;;21.09;92.25;100846.88;5212352;28;20098;-66
2023/06/19 02:28:37;;;;;;;4.97;2.87;;;;;;;21.00;95.00;100848.91;5213053;28;20030;-66
2023/06/19 02:31:08;;;;;;;3.27;2.40;;;;;;;21.02;94.72;100846.03;5213277;28;20029;-65
2023/06/19 02:33:40;;;;;;;3.63;2.40;;;;;;;20.98;95.59;100834.13;5212249;28;20063;-68
2023/06/19 02:36:11;;;;;;;5.57;2.03;;;;;;;20.95;95.64;100846.03;5210896;28;20110;-66
2023/06/19 02:38:42;;;;;;;2.80;2.20;;;;;;;20.96;96.44;100853.00;5214893;28;20054;-65
2023/06/19 02:41:14;;;;;;;5.00;2.47;;;;;;;20.95;96.72;100846.03;5213287;28;20026;-65
2023/06/19 02:43:46;;;;;;;3.20;2.17;;;;;;;20.94;96.69;100849.69;5212494;28;20059;-66
2023/06/19 02:46:18;;;;;;;2.88;2.25;;;;;;;20.88;98.08;100840.66;5215514;28;20025;-65
2023/06/19 02:48:49;;;;;;;4.10;2.13;;;;;;;20.89;98.03;100846.81;5213140;28;20418;-65
2023/06/19 02:51:20;;;;;;;3.83;2.40;;;;;;;20.83;99.22;100855.56;5210802;28;20021;-65
2023/06/19 02:53:51;;;;;;;3.63;2.50;;;;;;;20.81;99.79;100858.44;5193708;28;20029;-65
2023/06/19 02:56:25;;;;;;;2.37;1.93;;;;;;;20.78;100.00;100856.19;5214485;28;20061;-66
2023/06/19 02:58:56;;;;;;;3.90;2.47;;;;;;;20.74;100.00;100859.44;5212975;28;20288;-65
2023/06/19 03:01:27;;;;;;;4.33;2.33;;;;;;;20.68;100.00;100861.03;5216011;28;20030;-65
2023/06/19 03:03:58;;;;;;;2.83;2.17;;;;;;;20.66;100.00;100857.75;5212476;28;20316;-65
2023/06/19 03:06:30;;;;;;;2.80;2.13;;;;;;;20.65;100.00;100861.44;5213419;28;20042;-65
2023/06/19 03:09:01;;;;;;;3.57;2.33;;;;;;;20.64;100.00;100867.75;5211757;28;20070;-65
2023/06/19 03:11:33;;;;;;;4.43;2.53;;;;;;;20.60;100.00;100875.31;5215533;28;20022;-64
2023/06/19 03:14:07;;;;;;;3.60;2.00;;;;;;;20.60;100.00;100875.31;5217421;28;20025;-65
2023/06/19 03:16:38;;;;;;;3.90;2.30;;;;;;;20.55;100.00;100883.06;5216201;28;20029;-65
2023/06/19 03:19:09;;;;;;;2.70;2.50;;;;;;;20.56;100.00;100871.41;5214981;28;20030;-65
2023/06/19 03:21:41;;;;;;;3.00;2.50;;;;;;;20.54;100.00;100876.13;5216298;28;20086;-66
2023/06/19 03:24:12;;;;;;;5.27;2.83;;;;;;;20.50;100.00;100880.19;5216538;28;20497;-65
2023/06/19 03:26:43;;;;;;;4.27;2.27;;;;;;;20.48;100.00;100887.50;5217177;28;20105;-66
2023/06/19 03:29:14;;;;;;;3.60;2.80;;;;;;;20.42;100.00;100889.09;5215247;28;20090;-65
2023/06/19 03:31:46;;;;;;;5.83;2.90;;;;;;;20.41;100.00;100881.28;5215348;28;20067;-65
2023/06/19 03:34:17;;;;;;;4.47;2.70;;;;;;;20.33;100.00;100876.94;5211088;28;20090;-66
2023/06/19 03:36:48;;;;;;;3.47;2.80;;;;;;;20.35;100.00;100882.09;5214437;28;20029;-66
2023/06/19 03:39:19;;;;;;;3.47;3.00;;;;;;;20.30;100.00;100895.13;5213417;28;20083;-65
2023/06/19 03:41:51;;;;;;;5.87;3.60;;;;;;;20.29;100.00;100893.50;5207626;28;20461;-65
2023/06/19 03:44:22;;;;;;;5.57;3.17;;;;;;;20.34;100.00;100904.38;5208625;28;20479;-65
2023/06/19 03:46:53;;;;;;;4.00;3.23;;;;;;;20.32;100.00;100914.41;5213815;28;20030;-65
2023/06/19 03:49:25;;;;;;;4.73;3.70;;;;;;;20.35;100.00;100906.84;5211360;28;20068;-65
2023/06/19 03:51:56;;;;;;;7.07;3.77;;;;;;;20.39;100.00;100904.63;5213785;28;20037;-65
2023/06/19 03:54:27;;;;;;;4.23;3.40;;;;;;;20.42;100.00;100913.06;5211969;28;20152;-65
2023/06/19 03:56:58;;;;;;;3.90;3.37;;;;;;;20.45;100.00;100922.47;5210611;28;20045;-66
2023/06/19 03:59:30;;;;;;;5.53;3.30;;;;;;;20.49;100.00;100918.44;5212710;28;20064;-65
2023/06/19 04:02:01;;;;;;;5.10;3.53;;;;;;;20.50;100.00;100920.09;5214245;28;20040;-65
2023/06/19 04:04:32;;;;;;;4.70;3.03;;;;;;;20.54;100.00;100925.88;5211547;28;20029;-65
2023/06/19 04:07:04;;;;;;;3.87;3.47;;;;;;;20.55;100.00;100930.97;5207152;28;20049;-65
2023/06/19 04:09:35;;;;;;;4.53;3.30;;;;;;;20.56;100.00;100932.63;5207326;28;20510;-65
2023/06/19 04:12:07;;;;;;;4.73;3.60;;;;;;;20.59;100.00;100934.91;5214591;28;20037;-64
2023/06/19 04:14:38;;;;;;;6.33;3.43;;;;;;;20.60;100.00;100933.88;5216417;28;20029;-64
2023/06/19 04:17:09;;;;;;;5.03;3.40;;;;;;;20.63;100.00;100945.97;5210090;28;20061;-66
2023/06/19 04:19:41;;;;;;;3.80;3.40;;;;;;;20.65;100.00;100946.63;5211859;28;20036;-65
2023/06/19 04:22:12;;;;;;;6.57;3.37;;;;;;;20.65;100.00;100944.78;5213525;28;20060;-65
2023/06/19 04:24:43;;;;;;;5.20;3.57;;;;;;;20.69;100.00;100947.06;5212331;28;20116;-66
2023/06/19 04:27:15;;;;;;;4.33;3.60;;;;;;;20.68;100.00;100950.72;5210346;28;20037;-64
2023/06/19 04:29:46;;;;;;;4.03;3.60;;;;;;;20.74;100.00;100955.28;5212166;28;20117;-65
2023/06/19 04:32:17;;;;;;;5.33;3.57;;;;;;;20.75;100.00;100956.91;5214946;28;20030;-65
2023/06/19 04:34:49;;;;;;;4.70;3.37;;;;;;;20.79;100.00;100969.66;5212925;28;20026;-66
2023/06/19 04:37:20;;;;;;;6.13;3.87;;;;;;;20.79;100.00;100964.31;5211646;28;20034;-64
2023/06/19 04:39:52;;;;;;;7.53;4.00;;;;;;;20.78;100.00;100962.69;5220054;28;20061;-64
2023/06/19 04:42:24;;;;;;;5.43;4.17;;;;;;;20.80;100.00;100965.16;5215959;28;20033;-64
2023/06/19 04:44:59;;;;;;;5.05;3.53;;;;;;;20.84;100.00;100977.06;5213399;28;20029;-64
2023/06/19 04:47:30;;;;;;;6.93;4.13;;;;;;;20.80;100.00;100981.16;5213947;28;20116;-65
2023/06/19 04:50:01;;;;;;;6.77;3.90;;;;;;;20.86;100.00;100975.03;5220090;28;20047;-65
2023/06/19 04:52:33;;;;;;;6.47;4.20;;;;;;;20.88;100.00;100983.66;5211451;28;20057;-67
2023/06/19 04:55:09;;;;;;;5.87;3.70;;;;;;;20.93;100.00;100980.41;5216097;28;20098;-66
2023/06/19 04:57:40;;;;;;;5.72;4.18;;;;;;;20.96;100.00;100980.84;5213645;28;20037;-65
2023/06/19 05:00:12;;;;;;;5.43;3.87;;;;;;;21.01;100.00;100978.41;5213800;28;20022;-66
2023/06/19 05:02:45;;;;;;;7.35;4.13;;;;;;;21.05;100.00;100979.66;5221249;28;20025;-66
2023/06/19 05:05:17;;;;;;;6.70;4.10;;;;;;;21.04;100.00;100979.88;5216285;28;20071;-66
2023/06/19 05:07:48;;;;;;;4.43;3.90;;;;;;;21.13;100.00;100981.34;5216958;28;20033;-66
2023/06/19 05:10:19;;;;;;;5.60;4.00;;;;;;;21.16;100.00;100980.13;5213131;28;20081;-66
2023/06/19 05:12:50;;;;;;;5.47;3.90;;;;;;;21.22;100.00;100982.03;5214696;28;20121;-66
2023/06/19 05:15:22;;;;;;;7.40;4.20;;;;;;;21.20;100.00;100978.72;5211905;28;20087;-66
2023/06/19 05:17:53;;;;;;;7.67;4.70;;;;;;;21.24;100.00;100985.31;5207605;28;20026;-66
2023/06/19 05:20:25;;;;;;;5.30;4.40;;;;;;;21.28;100.00;100989.22;5214147;28;20036;-66
2023/06/19 05:22:56;;;;;;;5.93;3.87;;;;;;;21.33;100.00;100997.50;5211040;28;20124;-66
2023/06/19 05:25:27;;;;;;;5.10;4.03;;;;;;;21.33;100.00;100992.16;5212525;28;20036;-67
2023/06/19 05:27:58;;;;;;;6.83;3.97;;;;;;;21.35;100.00;100998.91;5214315;28;20026;-66
2023/06/19 05:30:30;;;;;;;4.63;4.13;;;;;;;21.38;100.00;101000.38;5212999;28;20061;-66
2023/06/19 05:33:01;;;;;;;5.97;4.40;;;;;;;21.42;100.00;101004.28;5215277;28;20574;-67
2023/06/19 05:35:32;;;;;;;5.97;4.40;;;;;;;21.46;100.00;101002.06;5207404;28;20231;-66
2023/06/19 05:38:05;;;;;;;5.60;4.43;;;;;;;21.48;100.00;101006.19;5214564;28;20053;-67
2023/06/19 05:40:36;;;;;;;4.72;4.22;;;;;;;21.48;100.00;101002.66;5216075;28;20030;-66
2023/06/19 05:43:07;;;;;;;6.13;4.93;;;;;;;21.56;100.00;101003.34;5211457;28;20115;-67
2023/06/19 05:45:39;;;;;;;5.87;4.37;;;;;;;21.56;100.00;101011.34;5211240;28;20105;-65
2023/06/19 05:48:10;;;;;;;6.17;4.37;;;;;;;21.65;100.00;101011.16;5194819;28;20052;-66
2023/06/19 05:50:41;;;;;;;5.10;4.60;;;;;;;21.66;100.00;101012.81;5220204;28;20025;-66
2023/06/19 05:53:13;;;;;;;6.17;5.10;;;;;;;21.71;100.00;101013.03;5216560;28;20475;-66
2023/06/19 05:55:44;;;;;;;6.60;4.63;;;;;;;21.75;100.00;101008.97;5219768;28;20032;-67
2023/06/19 05:58:19;;;;;;;5.93;5.30;;;;;;;21.77;100.00;101009.56;5208240;28;20046;-66
2023/06/19 06:00:57;;;;;;;7.30;5.65;;;;;;;21.74;100.00;101008.09;5213667;28;20026;-65
2023/06/19 06:03:30;;;;;;;6.45;5.75;;;;;;;21.76;100.00;101011.41;5211751;28;20030;-67
2023/06/19 06:06:03;;;;;;;;;;;;;;;22.44;100.00;101014.06;5217797;28;20029;-67
2023/06/19 06:08:34;;;;;;;5.85;5.22;;;;;;;21.85;100.00;101020.06;5214928;28;19917;-66
2023/06/19 06:11:05;;;;;;;6.77;5.80;;;;;;;21.88;100.00;101026.84;5211997;28;20497;-65
2023/06/19 06:13:37;;;;;;;6.67;5.93;;;;;;;21.93;100.00;101030.53;5214548;28;20050;-67
2023/06/19 06:16:08;;;;;;;7.60;6.43;;;;;;;22.01;100.00;101026.88;5213244;28;20038;-67
2023/06/19 06:18:39;;;;;;;6.50;5.97;;;;;;;22.10;100.00;101042.50;5216029;28;20037;-67
2023/06/19 06:21:12;;;;;;;7.13;6.43;;;;;;;22.13;100.00;101053.81;5222236;28;20040;-67
2023/06/19 06:23:44;;;;;;;6.60;5.90;;;;;;;22.17;99.89;101053.25;5214000;28;20488;-65
2023/06/19 06:26:16;;;;;;;7.20;6.22;;;;;;;22.28;97.87;101055.31;5213135;28;20169;-67
2023/06/19 06:28:47;;;;;;;7.07;6.37;;;;;;;22.39;97.14;101045.06;5211124;28;20029;-68
2023/06/19 06:31:19;;;;;;;7.43;6.77;;;;;;;22.31;95.03;101048.72;5219295;28;20041;-67
2023/06/19 06:33:50;;;;;;;8.53;6.83;;;;;;;22.33;94.80;101047.50;5214432;28;20033;-67
2023/06/19 06:36:21;;;;;;;7.60;6.67;;;;;;;22.50;97.42;101055.13;5215660;28;20030;-67
2023/06/19 06:38:53;;;;;;;7.00;6.30;;;;;;;22.64;95.09;101064.81;5215912;28;20431;-67
2023/06/19 06:41:24;;;;;;;7.73;6.70;;;;;;;22.77;91.07;101080.03;5209912;28;20040;-67
2023/06/19 06:43:55;;;;;;;6.80;6.20;;;;;;;22.83;90.16;101076.53;5214660;28;20047;-67
2023/06/19 06:46:26;;;;;;;7.93;6.53;;;;;;;22.86;88.62;101077.97;5209678;28;20037;-65
2023/06/19 06:48:59;;;;;;;8.75;7.18;;;;;;;22.83;87.28;101081.88;5212269;28;20049;-66
2023/06/19 06:51:30;;;;;;;7.07;6.37;;;;;;;22.79;87.27;101085.97;5216268;28;20482;-68
2023/06/19 06:54:01;;;;;;;8.87;6.50;;;;;;;22.86;88.48;101091.34;5211821;28;20086;-67
2023/06/19 06:56:32;;;;;;;7.97;7.27;;;;;;;22.90;86.71;101087.22;5216186;28;20029;-67
2023/06/19 06:59:04;;;;;;;8.57;7.77;;;;;;;22.85;84.46;101087.84;5213436;28;20617;-67
2023/06/19 07:01:35;;;;;;;8.73;7.93;;;;;;;22.99;84.53;101086.81;5216339;28;20021;-68
2023/06/19 07:04:06;;;;;;;8.60;7.37;;;;;;;23.02;84.26;101097.09;5219323;28;20026;-67
2023/06/19 07:06:38;;;;;;;8.20;7.40;;;;;;;22.98;80.80;101100.41;5214312;28;20124;-67
2023/06/19 07:09:09;;;;;;;9.33;7.30;;;;;;;23.06;82.95;101103.69;5217989;28;20037;-65
2023/06/19 07:11:41;;;;;;;8.47;7.43;;;;;;;23.14;80.91;101107.19;5210436;28;20025;-68
2023/06/19 07:14:12;;;;;;;8.07;7.37;;;;;;;23.38;79.53;101111.91;5212144;28;20041;-65
2023/06/19 07:16:45;;;;;;;7.83;6.87;;;;;;;23.32;79.67;101112.72;5211026;28;20028;-67
2023/06/19 07:19:16;;;;;;;7.95;7.15;;;;;;;23.34;78.89;101116.03;5211126;28;20032;-66
2023/06/19 07:21:50;;;;;;;8.27;7.57;;;;;;;23.50;78.35;101112.91;5212495;28;20022;-67
2023/06/19 07:24:21;;;;;;;9.50;7.70;;;;;;;23.42;76.91;101117.66;5210615;28;20029;-68
2023/06/19 07:26:53;;;;;;;9.97;6.77;;;;;;;23.47;75.42;101120.50;5222296;28;20499;-67
2023/06/19 07:29:25;;;;;;;6.93;6.33;;;;;;;23.50;75.59;101126.28;5210894;28;20026;-65
2023/06/19 07:31:56;;;;;;;6.90;6.28;;;;;;;23.53;75.65;101125.88;5217242;28;20284;-66
2023/06/19 07:34:27;;;;;;;7.00;6.30;;;;;;;23.51;76.00;101130.59;5215450;28;20502;-68
2023/06/19 07:36:59;;;;;;;7.73;6.37;;;;;;;23.68;74.61;101133.69;5215947;28;20562;-67
2023/06/19 07:39:31;;;;;;;6.93;6.33;;;;;;;23.72;74.63;101132.22;5211326;28;20077;-67
2023/06/19 07:42:02;;;;;;;7.07;6.37;;;;;;;23.75;74.77;101128.28;5221310;28;20089;-65
2023/06/19 07:44:33;;;;;;;7.63;6.10;;;;;;;23.72;73.60;101132.22;5214368;28;20101;-65
2023/06/19 07:47:05;;;;;;;6.07;5.57;;;;;;;23.77;73.40;101132.41;5210406;28;20026;-68
2023/06/19 07:49:36;;;;;;;7.33;6.03;;;;;;;23.74;72.07;101113.28;5219130;28;20078;-68
2023/06/19 07:52:09;;;;;;;8.10;6.03;;;;;;;23.94;72.90;101129.25;5213196;28;20494;-67
2023/06/19 07:54:56;;;;;;;;;;;;;;;24.74;69.13;101127.03;5210357;28;20056;-65
2023/06/19 07:57:28;;;;;;;6.32;5.72;;;;;;;24.25;72.53;101131.22;5215482;28;19913;-66
2023/06/19 07:59:59;;;;;;;7.77;5.50;;;;;;;24.35;71.18;101130.72;5220036;28;20032;-67
2023/06/19 08:02:30;;;;;;;10.37;5.80;;;;;;;24.46;69.39;101133.59;5214905;28;20030;-67
2023/06/19 08:05:01;;;;;;;14.00;6.10;;;;;;;24.54;68.75;101137.88;5216034;28;20029;-68
2023/06/19 08:07:33;;;;;;;9.70;5.90;;;;;;;24.69;68.49;101148.28;5210309;28;20004;-65
2023/06/19 08:10:05;;;;;;;7.80;6.13;;;;;;;24.76;64.59;101131.13;5209324;28;20124;-67
2023/06/19 08:12:36;;;;;;;8.00;5.63;;;;;;;24.93;63.43;101142.16;5214592;28;20030;-67
2023/06/19 08:15:08;;;;;;;7.10;5.40;;;;;;;25.09;63.73;101154.19;5211998;28;20373;-66
2023/06/19 08:17:40;;;;;;;8.27;5.65;;;;;;;25.15;61.92;101147.16;5215580;28;20040;-66
2023/06/19 08:20:12;;;;;;;6.00;5.30;;;;;;;25.41;62.02;101146.91;5214638;28;20029;-67
2023/06/19 08:22:43;;;;;;;7.07;5.30;;;;;;;25.40;59.69;101145.28;5213409;28;20481;-68
2023/06/19 08:25:16;;;;;;;6.50;5.17;;;;;;;25.53;61.05;101133.59;5213046;28;20116;-66
2023/06/19 08:27:48;;;;;;;8.02;5.65;;;;;;;25.42;59.35;101131.63;5191968;28;20445;-68
2023/06/19 08:30:19;;;;;;;6.30;5.70;;;;;;;25.53;58.53;101133.59;5196089;28;20292;-66
2023/06/19 08:32:50;;;;;;;7.70;5.53;;;;;;;25.40;58.03;101147.97;5212817;28;20030;-66
2023/06/19 08:35:22;;;;;;;5.67;5.10;;;;;;;25.61;58.52;101146.75;5213162;28;20483;-66
2023/06/19 08:37:54;;;;;;;6.20;5.60;;;;;;;25.46;58.92;101159.69;5211766;28;20512;-67
2023/06/19 08:40:25;;;;;;;7.13;5.55;;;;;;;25.31;59.38;101157.34;5212490;28;20037;-67
2023/06/19 08:42:57;;;;;;;10.67;6.30;;;;;;;25.17;61.01;101164.66;5216444;28;20499;-67
2023/06/19 08:45:29;;;;;;;6.43;5.80;;;;;;;25.32;61.42;101168.88;5211444;28;20475;-69
2023/06/19 08:48:03;;;;;;;16.65;6.30;;;;;;;25.28;60.73;101168.50;5213897;28;20457;-67
2023/06/19 08:50:34;;;;;;;10.68;6.30;;;;;;;25.37;61.24;101167.19;5211739;28;20040;-67
2023/06/19 08:53:06;;;;;;;6.93;5.93;;;;;;;25.36;60.25;101170.91;5211283;28;20030;-66
2023/06/19 08:55:37;;;;;;;7.00;5.87;;;;;;;25.66;62.37;101184.44;5209996;28;20113;-67
2023/06/19 08:58:11;;;;;;;7.47;5.63;;;;;;;25.67;58.97;101194.13;5215447;28;20064;-66
2023/06/19 09:00:47;;;;;;;7.15;5.82;;;;;;;25.81;58.79;101189.50;5216604;28;20036;-67
2023/06/19 09:03:22;;;;;;;6.60;6.00;;;;;;;25.81;58.69;101188.69;5207567;28;20037;-67
2023/06/19 09:05:54;;;;;;;7.32;6.40;;;;;;;25.68;59.81;101178.84;5213913;28;20036;-66
2023/06/19 09:08:25;;;;;;;7.70;5.63;;;;;;;25.48;59.56;101184.41;5221333;28;20479;-67
2023/06/19 09:11:00;;;;;;;6.10;5.33;;;;;;;25.69;60.12;101197.44;5211395;28;20044;-67
2023/06/19 09:13:33;;;;;;;8.95;5.88;;;;;;;25.43;59.84;101190.44;5218235;28;20030;-67
2023/06/19 09:16:06;;;;;;;8.93;5.78;;;;;;;25.67;57.38;101194.13;5223844;28;20028;-66
2023/06/19 09:18:45;;;;;;;7.40;6.60;;;;;;;25.79;55.37;101188.06;5214949;28;20026;-67
2023/06/19 09:21:24;;;;;;;7.43;6.57;;;;;;;25.95;56.26;101195.56;5218994;28;20141;-67
2023/06/19 09:24:03;;;;;;;7.85;6.22;;;;;;;26.24;53.41;101210.06;5218041;28;20040;-67
2023/06/19 09:26:35;;;;;;;7.13;5.80;;;;;;;26.23;53.11;101213.81;5217396;28;20117;-67
2023/06/19 09:29:11;;;;;;;8.60;6.07;;;;;;;26.33;51.62;101210.59;5210375;28;20390;-66
2023/06/19 09:31:42;;;;;;;6.93;6.20;;;;;;;26.04;51.87;101209.50;5213774;28;20022;-66
2023/06/19 09:34:13;;;;;;;8.80;6.13;;;;;;;26.27;51.25;101215.00;5211810;28;20040;-67
2023/06/19 09:36:45;;;;;;;7.87;6.90;;;;;;;26.55;50.84;101213.66;5211324;28;20014;-66
2023/06/19 09:39:18;;;;;;;8.80;6.60;;;;;;;26.58;50.94;101213.19;5201996;28;20087;-66
2023/06/19 09:41:52;;;;;;;8.27;5.78;;;;;;;26.75;51.20;101214.22;5211032;28;20112;-66
2023/06/19 09:44:24;;;;;;;7.25;5.70;;;;;;;26.76;49.14;101223.91;5218259;28;20026;-67
2023/06/19 09:46:59;;;;;;;7.47;6.35;;;;;;;26.81;49.79;101223.22;5216307;28;20073;-66
2023/06/19 09:49:32;;;;;;;7.38;6.30;;;;;;;26.81;49.17;101215.16;5213829;28;20033;-67
2023/06/19 09:52:03;;;;;;;6.78;5.90;;;;;;;26.90;47.15;101214.63;5217671;28;20030;-67
2023/06/19 09:54:37;;;;;;;7.50;6.53;;;;;;;26.89;46.99;101214.81;5219485;28;20023;-66
2023/06/19 09:57:09;;;;;;;7.75;6.30;;;;;;;27.06;46.70;101210.44;5221572;28;20288;-67
2023/06/19 09:59:42;;;;;;;7.07;6.38;;;;;;;27.08;47.47;101218.25;5217486;28;20382;-66
2023/06/19 10:02:14;;;;;;;9.35;6.47;;;;;;;26.92;49.30;101217.06;5199693;28;20118;-68
2023/06/19 10:04:51;;;;;;;6.50;5.70;;;;;;;27.13;49.00;101215.75;5216599;28;20429;-65
2023/06/19 10:07:24;;;;;;;8.25;6.65;;;;;;;27.08;47.91;101227.16;5217836;28;20041;-65
2023/06/19 10:10:06;;;;;;;6.05;5.45;;;;;;;27.25;48.05;101223.84;5213440;28;20030;-66
2023/06/19 10:12:42;;;;;;;7.63;5.77;;;;;;;27.61;46.66;101214.72;5215753;28;20175;-65
2023/06/19 10:15:20;;;;;;;8.77;6.50;;;;;;;27.34;46.28;101228.63;5216862;28;20030;-66
2023/06/19 10:18:00;;;;;;;7.32;6.63;;;;;;;27.34;44.59;101228.63;5214871;28;20036;-66
2023/06/19 10:20:34;;;;;;;8.70;6.75;;;;;;;27.23;46.12;101223.22;5211719;28;20030;-66
2023/06/19 10:23:08;;;;;;;9.30;7.13;;;;;;;27.12;45.66;101219.47;5218968;28;20073;-68
2023/06/19 10:25:43;;;;;;;10.18;6.78;;;;;;;27.14;45.72;101228.97;5212529;28;20117;-67
2023/06/19 10:28:22;;;;;;;6.10;5.50;;;;;;;27.45;46.15;101215.44;5210378;28;20029;-66
2023/06/19 10:31:01;;;;;;;6.10;5.50;;;;;;;27.77;45.28;101224.84;5208634;28;20459;-64
2023/06/19 10:33:36;;;;;;;9.18;5.57;;;;;;;27.94;46.24;101227.63;5216732;28;20554;-65
2023/06/19 10:36:15;;;;;;;6.60;5.43;;;;;;;28.33;44.16;101228.69;5217654;28;20025;-66
2023/06/19 10:38:47;;;;;;;6.40;5.03;;;;;;;28.05;42.18;101225.97;5214322;28;20547;-67
2023/06/19 10:41:25;;;;;;;6.10;5.30;;;;;;;28.24;42.16;101221.25;5222923;28;20021;-67
2023/06/19 10:44:03;;;;;;;7.25;5.30;;;;;;;27.98;43.06;101220.69;5209612;28;20046;-66
2023/06/19 10:46:36;;;;;;;7.25;5.78;;;;;;;27.76;42.85;101242.03;5214720;28;20436;-65
2023/06/19 10:49:10;;;;;;;;;;;;;;;28.75;41.10;101225.78;5217279;28;20103;-65
2023/06/19 10:51:43;;;;;;;5.75;4.97;;;;;;;27.82;42.59;101230.31;5217154;28;19913;-65
2023/06/19 10:54:15;;;;;;;6.57;5.25;;;;;;;27.66;41.80;101231.00;5217692;28;20040;-66
2023/06/19 10:56:48;;;;;;;7.13;5.43;;;;;;;27.71;40.88;101220.34;5212585;28;20490;-67
2023/06/19 10:59:20;;;;;;;7.47;6.00;;;;;;;27.47;42.47;101214.16;5222301;28;20061;-66
2023/06/19 11:01:52;;;;;;;6.20;5.60;;;;;;;27.36;43.63;101217.66;5212585;28;20108;-66
2023/06/19 11:04:25;;;;;;;;;;;;;;;28.38;41.87;101209.16;5212749;28;20037;-67
2023/06/19 11:06:56;;;;;;;8.52;5.70;;;;;;;28.03;42.00;101211.91;5214459;28;19922;-66
2023/06/19 11:09:30;;;;;;;8.13;5.87;;;;;;;28.15;43.20;101204.63;5215894;28;20661;-66
2023/06/19 11:12:02;;;;;;;7.97;5.63;;;;;;;28.29;42.42;101211.38;5212254;28;20106;-66
2023/06/19 11:14:39;;;;;;;6.90;5.40;;;;;;;28.47;41.94;101212.28;5212219;28;20029;-66
2023/06/19 11:17:10;;;;;;;8.65;6.13;;;;;;;28.47;40.65;101212.28;5212684;28;20022;-69
2023/06/19 11:19:43;;;;;;;9.07;6.17;;;;;;;28.65;39.66;101204.03;5213558;28;20036;-66
2023/06/19 11:22:14;;;;;;;7.57;5.88;;;;;;;28.63;39.53;101205.31;5218455;28;20461;-67
2023/06/19 11:24:48;;;;;;;6.97;5.67;;;;;;;28.95;39.70;101211.03;5210711;28;20112;-67
2023/06/19 11:27:28;;;;;;;8.05;5.70;;;;;;;29.02;38.63;101214.41;5216713;28;20033;-67
2023/06/19 11:30:00;;;;;;;7.97;5.88;;;;;;;28.97;38.03;101206.19;5212960;28;20036;-66
2023/06/19 11:32:41;;;;;;;6.13;5.50;;;;;;;29.12;38.04;101208.34;5212499;28;20026;-66
2023/06/19 11:35:12;;;;;;;8.57;5.97;;;;;;;28.98;37.77;101210.53;5212269;28;20037;-66
2023/06/19 11:37:43;;;;;;;6.57;5.43;;;;;;;29.22;37.79;101216.63;5210625;28;21266;-66
2023/06/19 11:40:15;;;;;;;6.30;5.03;;;;;;;29.43;36.33;101207.78;5216333;28;20038;-67
2023/06/19 11:42:52;;;;;;;6.73;5.70;;;;;;;29.60;38.33;101204.28;5214893;28;20186;-66
2023/06/19 11:45:23;;;;;;;6.05;5.35;;;;;;;29.47;36.53;101195.44;5219034;28;20033;-67
2023/06/19 11:47:54;;;;;;;6.27;5.30;;;;;;;29.53;36.75;101199.03;5218596;28;20381;-66